sensor_id;sensor_type;location;lat;lon;timestamp;pressure;altitude;pressure_sealevel;temperature;humidity
45763;BME280;37512;52.408;13.356;2023-05-29T00:01:43;101472.09;;;14.77;89.04
45763;BME280;37512;52.408;13.356;2023-05-29T00:05:45;101464.78;;;14.69;88.88
45763;BME280;37512;52.408;13.356;2023-05-29T00:09:46;101465.53;;;14.20;94.21
45763;BME280;37512;52.408;13.356;2023-05-29T00:13:48;101459.69;;;14.06;94.02
45763;BME280;37512;52.408;13.356;2023-05-29T00:17:50;101465.78;;;14.34;93.73
45763;BME280;37512;52.408;13.356;2023-05-29T00:21:52;101456.34;;;14.42;91.78
45763;BME280;37512;52.408;13.356;2023-05-29T00:25:53;101469.19;;;14.24;93.04
45763;BME280;37512;52.408;13.356;2023-05-29T00:29:55;101469.75;;;14.10;92.61
45763;BME280;37512;52.408;13.356;2023-05-29T00:33:57;101469.44;;;14.15;92.89
45763;BME280;37512;52.408;13.356;2023-05-29T00:37:58;101476.44;;;14.06;94.51
45763;BME280;37512;52.408;13.356;2023-05-29T00:42:00;101462.81;;;14.00;93.51
45763;BME280;37512;52.408;13.356;2023-05-29T00:46:01;101470.28;;;13.96;92.59
45763;BME280;37512;52.408;13.356;2023-05-29T00:50:04;101471.94;;;13.78;94.24
45763;BME280;37512;52.408;13.356;2023-05-29T00:54:07;101463.69;;;13.85;94.12
45763;BME280;37512;52.408;13.356;2023-05-29T00:58:09;101470.09;;;13.86;92.03
45763;BME280;37512;52.408;13.356;2023-05-29T01:02:11;101477.38;;;13.71;93.59
45763;BME280;37512;52.408;13.356;2023-05-29T01:06:13;101461.75;;;13.66;93.07
45763;BME280;37512;52.408;13.356;2023-05-29T01:10:15;101469.09;;;13.55;94.68
45763;BME280;37512;52.408;13.356;2023-05-29T01:27:10;101472.97;;;13.31;96.23
45763;BME280;37512;52.408;13.356;2023-05-29T01:31:12;101477.28;;;13.28;96.45
45763;BME280;37512;52.408;13.356;2023-05-29T01:35:15;101476.31;;;13.21;95.34
45763;BME280;37512;52.408;13.356;2023-05-29T01:39:17;101482.13;;;13.15;96.96
45763;BME280;37512;52.408;13.356;2023-05-29T01:43:20;101481.53;;;13.06;99.28
45763;BME280;37512;52.408;13.356;2023-05-29T01:47:22;101489.44;;;13.04;99.71
45763;BME280;37512;52.408;13.356;2023-05-29T01:51:25;101484.34;;;12.90;100.00
45763;BME280;37512;52.408;13.356;2023-05-29T01:55:26;101481.84;;;12.85;100.00
45763;BME280;37512;52.408;13.356;2023-05-29T01:59:29;101487.78;;;12.84;100.00
45763;BME280;37512;52.408;13.356;2023-05-29T02:03:32;101483.56;;;12.74;100.00
45763;BME280;37512;52.408;13.356;2023-05-29T02:07:34;101483.06;;;12.68;100.00
45763;BME280;37512;52.408;13.356;2023-05-29T02:11:36;101492.75;;;12.43;100.00
45763;BME280;37512;52.408;13.356;2023-05-29T02:15:37;101483.31;;;12.47;100.00
45763;BME280;37512;52.408;13.356;2023-05-29T02:19:39;101493.19;;;12.29;100.00
45763;BME280;37512;52.408;13.356;2023-05-29T02:23:40;101490.69;;;12.40;100.00
45763;BME280;37512;52.408;13.356;2023-05-29T02:27:42;101491.25;;;12.29;100.00
45763;BME280;37512;52.408;13.356;2023-05-29T02:31:43;101491.34;;;11.89;100.00
45763;BME280;37512;52.408;13.356;2023-05-29T02:35:45;101499.94;;;11.71;100.00
45763;BME280;37512;52.408;13.356;2023-05-29T02:39:47;101482.88;;;12.13;100.00
45763;BME280;37512;52.408;13.356;2023-05-29T02:43:48;101484.75;;;12.25;100.00
45763;BME280;37512;52.408;13.356;2023-05-29T02:47:50;101495.78;;;12.22;100.00
45763;BME280;37512;52.408;13.356;2023-05-29T02:51:51;101495.94;;;12.13;100.00
45763;BME280;37512;52.408;13.356;2023-05-29T02:55:57;101492.34;;;11.97;100.00
45763;BME280;37512;52.408;13.356;2023-05-29T02:59:59;101493.00;;;11.65;100.00
45763;BME280;37512;52.408;13.356;2023-05-29T03:04:02;101496.56;;;11.78;100.00
45763;BME280;37512;52.408;13.356;2023-05-29T03:08:03;101500.03;;;11.87;100.00
45763;BME280;37512;52.408;13.356;2023-05-29T03:12:05;101497.91;;;11.97;100.00
45763;BME280;37512;52.408;13.356;2023-05-29T03:16:06;101498.41;;;11.86;100.00
45763;BME280;37512;52.408;13.356;2023-05-29T03:20:10;101497.38;;;11.91;100.00
45763;BME280;37512;52.408;13.356;2023-05-29T03:24:12;101505.63;;;12.03;100.00
45763;BME280;37512;52.408;13.356;2023-05-29T03:28:17;101500.19;;;12.07;100.00
45763;BME280;37512;52.408;13.356;2023-05-29T03:32:18;101514.00;;;12.19;100.00
45763;BME280;37512;52.408;13.356;2023-05-29T03:36:20;101514.75;;;12.32;100.00
45763;BME280;37512;52.408;13.356;2023-05-29T03:40:22;101508.56;;;12.39;100.00
45763;BME280;37512;52.408;13.356;2023-05-29T03:44:23;101509.84;;;12.57;100.00
45763;BME280;37512;52.408;13.356;2023-05-29T03:48:25;101513.78;;;12.56;100.00
45763;BME280;37512;52.408;13.356;2023-05-29T03:52:26;101515.75;;;12.55;100.00
45763;BME280;37512;52.408;13.356;2023-05-29T03:56:28;101517.63;;;12.67;100.00
45763;BME280;37512;52.408;13.356;2023-05-29T04:00:29;101523.28;;;12.39;100.00
45763;BME280;37512;52.408;13.356;2023-05-29T04:04:31;101523.81;;;12.61;100.00
45763;BME280;37512;52.408;13.356;2023-05-29T04:08:33;101523.31;;;12.71;100.00
45763;BME280;37512;52.408;13.356;2023-05-29T04:12:34;101536.16;;;12.60;100.00
45763;BME280;37512;52.408;13.356;2023-05-29T04:16:36;101525.34;;;12.74;100.00
45763;BME280;37512;52.408;13.356;2023-05-29T04:20:37;101534.44;;;12.87;100.00
45763;BME280;37512;52.408;13.356;2023-05-29T04:24:39;101537.09;;;12.99;100.00
45763;BME280;37512;52.408;13.356;2023-05-29T04:28:41;101526.69;;;12.96;100.00
45763;BME280;37512;52.408;13.356;2023-05-29T04:32:43;101541.72;;;12.44;100.00
45763;BME280;37512;52.408;13.356;2023-05-29T04:36:45;101537.09;;;12.99;100.00
45763;BME280;37512;52.408;13.356;2023-05-29T04:40:47;101532.75;;;13.17;100.00
45763;BME280;37512;52.408;13.356;2023-05-29T04:44:49;101536.78;;;13.36;100.00
45763;BME280;37512;52.408;13.356;2023-05-29T04:48:51;101539.03;;;13.46;100.00
45763;BME280;37512;52.408;13.356;2023-05-29T04:52:55;101543.72;;;13.26;100.00
45763;BME280;37512;52.408;13.356;2023-05-29T04:56:57;101537.72;;;13.59;100.00
45763;BME280;37512;52.408;13.356;2023-05-29T05:00:58;101539.47;;;13.87;98.52
45763;BME280;37512;52.408;13.356;2023-05-29T05:05:00;101544.97;;;14.03;99.97
45763;BME280;37512;52.408;13.356;2023-05-29T05:09:02;101543.16;;;13.91;97.16
45763;BME280;37512;52.408;13.356;2023-05-29T05:13:03;101549.72;;;14.02;93.41
45763;BME280;37512;52.408;13.356;2023-05-29T05:17:08;101548.38;;;14.35;92.41
45763;BME280;37512;52.408;13.356;2023-05-29T05:21:10;101552.19;;;14.47;93.56
45763;BME280;37512;52.408;13.356;2023-05-29T05:25:11;101560.47;;;14.43;88.12
45763;BME280;37512;52.408;13.356;2023-05-29T05:29:13;101560.34;;;14.55;88.54
45763;BME280;37512;52.408;13.356;2023-05-29T05:33:14;101559.94;;;14.80;88.32
45763;BME280;37512;52.408;13.356;2023-05-29T05:37:16;101557.78;;;14.93;89.49
45763;BME280;37512;52.408;13.356;2023-05-29T05:41:18;101556.19;;;14.92;89.46
45763;BME280;37512;52.408;13.356;2023-05-29T05:45:19;101558.72;;;14.77;84.66
45763;BME280;37512;52.408;13.356;2023-05-29T05:49:21;101561.50;;;14.77;83.87
45763;BME280;37512;52.408;13.356;2023-05-29T05:53:22;101572.50;;;14.90;82.24
45763;BME280;37512;52.408;13.356;2023-05-29T05:57:24;101577.97;;;15.05;81.79
45763;BME280;37512;52.408;13.356;2023-05-29T06:01:26;101576.97;;;15.21;78.48
45763;BME280;37512;52.408;13.356;2023-05-29T06:05:29;101576.50;;;15.15;79.24
45763;BME280;37512;52.408;13.356;2023-05-29T06:09:30;101579.91;;;15.28;77.41
45763;BME280;37512;52.408;13.356;2023-05-29T06:13:32;101572.41;;;15.62;77.59
45763;BME280;37512;52.408;13.356;2023-05-29T06:17:33;101576.34;;;15.58;76.13
45763;BME280;37512;52.408;13.356;2023-05-29T06:21:36;101583.81;;;15.77;73.25
45763;BME280;37512;52.408;13.356;2023-05-29T06:25:38;101584.34;;;15.86;71.53
45763;BME280;37512;52.408;13.356;2023-05-29T06:29:40;101595.66;;;16.30;67.97
45763;BME280;37512;52.408;13.356;2023-05-29T06:33:42;101603.22;;;16.26;68.08
45763;BME280;37512;52.408;13.356;2023-05-29T06:37:45;101596.63;;;16.12;60.74
45763;BME280;37512;52.408;13.356;2023-05-29T06:41:47;101602.41;;;16.26;62.30
45763;BME280;37512;52.408;13.356;2023-05-29T06:45:48;101603.75;;;16.39;60.06
45763;BME280;37512;52.408;13.356;2023-05-29T06:49:50;101599.97;;;16.58;60.04
45763;BME280;37512;52.408;13.356;2023-05-29T06:53:51;101604.00;;;16.61;60.03
45763;BME280;37512;52.408;13.356;2023-05-29T06:57:53;101606.69;;;16.91;59.33
45763;BME280;37512;52.408;13.356;2023-05-29T07:01:55;101610.25;;;16.84;59.71
45763;BME280;37512;52.408;13.356;2023-05-29T07:05:57;101611.41;;;17.28;60.68
45763;BME280;37512;52.408;13.356;2023-05-29T07:09:58;101616.69;;;17.37;57.64
45763;BME280;37512;52.408;13.356;2023-05-29T07:14:00;101616.75;;;17.47;55.50
45763;BME280;37512;52.408;13.356;2023-05-29T07:18:01;101619.81;;;17.28;55.81
45763;BME280;37512;52.408;13.356;2023-05-29T07:22:03;101620.50;;;17.73;56.20
45763;BME280;37512;52.408;13.356;2023-05-29T07:26:05;101620.47;;;17.69;57.25
45763;BME280;37512;52.408;13.356;2023-05-29T07:30:07;101629.34;;;17.78;53.12
45763;BME280;37512;52.408;13.356;2023-05-29T07:34:09;101621.94;;;18.15;54.29
45763;BME280;37512;52.408;13.356;2023-05-29T07:38:10;101624.22;;;17.88;52.34
45763;BME280;37512;52.408;13.356;2023-05-29T07:42:12;101629.75;;;17.73;55.61
45763;BME280;37512;52.408;13.356;2023-05-29T07:46:13;101629.53;;;18.11;51.01
45763;BME280;37512;52.408;13.356;2023-05-29T07:50:15;101630.00;;;18.24;53.05
45763;BME280;37512;52.408;13.356;2023-05-29T07:54:17;101632.50;;;18.43;51.78
45763;BME280;37512;52.408;13.356;2023-05-29T07:58:19;101640.94;;;18.50;52.42
45763;BME280;37512;52.408;13.356;2023-05-29T08:02:22;101646.69;;;19.08;50.31
45763;BME280;37512;52.408;13.356;2023-05-29T08:06:23;101649.50;;;19.00;50.51
45763;BME280;37512;52.408;13.356;2023-05-29T08:10:25;101646.28;;;19.16;49.74
45763;BME280;37512;52.408;13.356;2023-05-29T08:14:26;101651.91;;;19.41;47.54
45763;BME280;37512;52.408;13.356;2023-05-29T08:18:30;101651.47;;;19.64;49.68
45763;BME280;37512;52.408;13.356;2023-05-29T08:22:32;101653.50;;;19.42;51.34
45763;BME280;37512;52.408;13.356;2023-05-29T08:26:35;101647.06;;;19.53;49.56
45763;BME280;37512;52.408;13.356;2023-05-29T08:30:37;101638.09;;;20.08;46.35
45763;BME280;37512;52.408;13.356;2023-05-29T08:34:39;101650.97;;;20.02;45.77
45763;BME280;37512;52.408;13.356;2023-05-29T08:38:40;101645.66;;;20.18;44.77
45763;BME280;37512;52.408;13.356;2023-05-29T08:42:51;101639.31;;;20.00;45.52
45763;BME280;37512;52.408;13.356;2023-05-29T08:47:01;101642.25;;;19.28;46.71
45763;BME280;37512;52.408;13.356;2023-05-29T08:51:03;101638.19;;;19.58;47.92
45763;BME280;37512;52.408;13.356;2023-05-29T08:55:06;101646.63;;;19.76;45.82
45763;BME280;37512;52.408;13.356;2023-05-29T08:59:09;101648.97;;;19.95;46.32
45763;BME280;37512;52.408;13.356;2023-05-29T09:03:12;101657.50;;;19.45;47.52
45763;BME280;37512;52.408;13.356;2023-05-29T09:07:16;101657.81;;;20.08;46.30
45763;BME280;37512;52.408;13.356;2023-05-29T09:11:18;101643.72;;;20.08;46.59
45763;BME280;37512;52.408;13.356;2023-05-29T09:15:22;101647.06;;;19.71;46.44
45763;BME280;37512;52.408;13.356;2023-05-29T09:19:25;101639.13;;;20.43;46.63
45763;BME280;37512;52.408;13.356;2023-05-29T09:23:27;101637.13;;;21.06;44.96
45763;BME280;37512;52.408;13.356;2023-05-29T09:27:28;101639.41;;;20.70;45.39
45763;BME280;37512;52.408;13.356;2023-05-29T09:31:30;101645.56;;;20.43;47.24
45763;BME280;37512;52.408;13.356;2023-05-29T09:35:36;101652.25;;;20.75;46.28
45763;BME280;37512;52.408;13.356;2023-05-29T09:43:42;101647.06;;;21.22;47.22
45763;BME280;37512;52.408;13.356;2023-05-29T09:47:47;101655.34;;;20.98;45.88
45763;BME280;37512;52.408;13.356;2023-05-29T09:51:53;101647.84;;;20.74;43.55
45763;BME280;37512;52.408;13.356;2023-05-29T09:55:55;101654.63;;;20.80;44.00
45763;BME280;37512;52.408;13.356;2023-05-29T09:59:58;101645.06;;;20.66;45.35
45763;BME280;37512;52.408;13.356;2023-05-29T10:04:02;101633.63;;;21.40;43.58
45763;BME280;37512;52.408;13.356;2023-05-29T10:08:05;101627.84;;;21.89;42.26
45763;BME280;37512;52.408;13.356;2023-05-29T10:12:08;101624.50;;;21.22;45.96
45763;BME280;37512;52.408;13.356;2023-05-29T10:16:11;101632.44;;;22.10;44.01
45763;BME280;37512;52.408;13.356;2023-05-29T10:20:20;101637.78;;;22.04;43.26
45763;BME280;37512;52.408;13.356;2023-05-29T10:24:22;101637.38;;;22.67;43.74
45763;BME280;37512;52.408;13.356;2023-05-29T10:28:24;101645.91;;;23.18;41.04
45763;BME280;37512;52.408;13.356;2023-05-29T10:49:34;101624.13;;;22.88;39.71
45763;BME280;37512;52.408;13.356;2023-05-29T10:53:36;101625.00;;;23.55;40.53
45763;BME280;37512;52.408;13.356;2023-05-29T10:57:46;101626.50;;;23.16;39.14
45763;BME280;37512;52.408;13.356;2023-05-29T11:01:51;101632.09;;;22.08;40.63
45763;BME280;37512;52.408;13.356;2023-05-29T11:06:03;101628.31;;;22.18;40.98
45763;BME280;37512;52.408;13.356;2023-05-29T11:10:12;101619.94;;;22.96;39.35
45763;BME280;37512;52.408;13.356;2023-05-29T11:14:15;101616.16;;;22.52;40.03
45763;BME280;37512;52.408;13.356;2023-05-29T11:18:20;101614.88;;;22.57;40.67
45763;BME280;37512;52.408;13.356;2023-05-29T11:22:27;101616.00;;;23.61;38.68
45763;BME280;37512;52.408;13.356;2023-05-29T11:26:31;101612.56;;;23.49;37.02
45763;BME280;37512;52.408;13.356;2023-05-29T11:30:47;101624.66;;;22.52;37.71
45763;BME280;37512;52.408;13.356;2023-05-29T11:34:50;101614.88;;;22.57;40.00
45763;BME280;37512;52.408;13.356;2023-05-29T11:38:53;101610.03;;;22.57;37.24
45763;BME280;37512;52.408;13.356;2023-05-29T11:42:55;101609.19;;;23.34;37.27
45763;BME280;37512;52.408;13.356;2023-05-29T11:47:05;101609.81;;;21.38;39.53
45763;BME280;37512;52.408;13.356;2023-05-29T11:51:10;101609.84;;;22.95;38.69
45763;BME280;37512;52.408;13.356;2023-05-29T11:55:12;101606.81;;;23.96;36.74
45763;BME280;37512;52.408;13.356;2023-05-29T11:59:14;101603.03;;;23.83;35.26
45763;BME280;37512;52.408;13.356;2023-05-29T12:03:16;101600.69;;;24.18;33.53
45763;BME280;37512;52.408;13.356;2023-05-29T12:07:18;101599.94;;;24.87;33.16
45763;BME280;37512;52.408;13.356;2023-05-29T12:11:23;101602.56;;;25.43;31.30
45763;BME280;37512;52.408;13.356;2023-05-29T12:15:27;101604.63;;;23.41;33.85
45763;BME280;37512;52.408;13.356;2023-05-29T12:19:29;101601.13;;;23.33;34.59
45763;BME280;37512;52.408;13.356;2023-05-29T12:23:31;101592.09;;;23.62;36.49
45763;BME280;37512;52.408;13.356;2023-05-29T12:27:33;101577.56;;;25.21;33.19
45763;BME280;37512;52.408;13.356;2023-05-29T12:31:42;101587.03;;;25.15;33.75
45763;BME280;37512;52.408;13.356;2023-05-29T12:35:46;101587.16;;;24.78;32.40
45763;BME280;37512;52.408;13.356;2023-05-29T12:40:09;101599.56;;;23.08;33.65
45763;BME280;37512;52.408;13.356;2023-05-29T12:44:31;101592.91;;;22.91;36.38
45763;BME280;37512;52.408;13.356;2023-05-29T12:48:34;101591.25;;;22.70;37.03
45763;BME280;37512;52.408;13.356;2023-05-29T12:52:39;101590.22;;;24.15;37.49
45763;BME280;37512;52.408;13.356;2023-05-29T12:56:42;101584.41;;;24.91;35.03
45763;BME280;37512;52.408;13.356;2023-05-29T13:00:44;101579.31;;;25.61;33.65
45763;BME280;37512;52.408;13.356;2023-05-29T13:04:47;101578.78;;;25.37;33.86
45763;BME280;37512;52.408;13.356;2023-05-29T14:12:55;101560.03;;;24.61;33.41
45763;BME280;37512;52.408;13.356;2023-05-29T14:16:57;101557.88;;;24.98;32.54
45763;BME280;37512;52.408;13.356;2023-05-29T14:20:59;101557.97;;;24.94;33.52
45763;BME280;37512;52.408;13.356;2023-05-29T14:25:01;101562.88;;;25.69;31.79
45763;BME280;37512;52.408;13.356;2023-05-29T14:29:05;101552.78;;;26.48;31.41
45763;BME280;37512;52.408;13.356;2023-05-29T14:33:15;101558.06;;;25.95;30.02
45763;BME280;37512;52.408;13.356;2023-05-29T14:37:17;101550.81;;;25.64;31.50
45763;BME280;37512;52.408;13.356;2023-05-29T14:41:19;101546.63;;;26.49;30.23
45763;BME280;37512;52.408;13.356;2023-05-29T14:45:21;101542.09;;;27.47;28.84
45763;BME280;37512;52.408;13.356;2023-05-29T14:49:23;101535.72;;;27.08;29.98
45763;BME280;37512;52.408;13.356;2023-05-29T14:53:25;101535.59;;;26.64;29.90
45763;BME280;37512;52.408;13.356;2023-05-29T14:57:27;101538.97;;;25.95;30.58
45763;BME280;37512;52.408;13.356;2023-05-29T15:01:30;101543.78;;;26.37;30.07
45763;BME280;37512;52.408;13.356;2023-05-29T15:05:32;101537.16;;;26.01;30.69
45763;BME280;37512;52.408;13.356;2023-05-29T15:09:34;101531.16;;;26.50;30.06
45763;BME280;37512;52.408;13.356;2023-05-29T15:13:36;101528.88;;;26.07;30.05
45763;BME280;37512;52.408;13.356;2023-05-29T15:17:38;101544.31;;;25.93;30.72
45763;BME280;37512;52.408;13.356;2023-05-29T15:21:41;101538.56;;;25.80;30.64
45763;BME280;37512;52.408;13.356;2023-05-29T15:25:43;101534.81;;;24.96;32.32
45763;BME280;37512;52.408;13.356;2023-05-29T15:29:45;101531.41;;;25.01;31.42
45763;BME280;37512;52.408;13.356;2023-05-29T15:33:48;101526.88;;;25.20;30.55
45763;BME280;37512;52.408;13.356;2023-05-29T15:37:50;101520.34;;;25.36;30.37
45763;BME280;37512;52.408;13.356;2023-05-29T15:41:52;101525.09;;;25.55;30.38
45763;BME280;37512;52.408;13.356;2023-05-29T15:45:53;101530.88;;;24.40;31.53
45763;BME280;37512;52.408;13.356;2023-05-29T15:49:56;101532.25;;;24.85;30.05
45763;BME280;37512;52.408;13.356;2023-05-29T15:54:07;101524.31;;;25.09;29.80
45763;BME280;37512;52.408;13.356;2023-05-29T15:58:09;101522.09;;;25.75;30.80
45763;BME280;37512;52.408;13.356;2023-05-29T16:02:12;101522.00;;;25.04;31.10
45763;BME280;37512;52.408;13.356;2023-05-29T16:06:14;101524.94;;;23.98;32.16
45763;BME280;37512;52.408;13.356;2023-05-29T16:10:18;101530.28;;;23.76;32.68
45763;BME280;37512;52.408;13.356;2023-05-29T16:14:21;101531.78;;;23.41;33.22
45763;BME280;37512;52.408;13.356;2023-05-29T16:18:23;101530.28;;;22.89;34.35
45763;BME280;37512;52.408;13.356;2023-05-29T16:22:26;101521.53;;;23.67;33.92
45763;BME280;37512;52.408;13.356;2023-05-29T16:26:42;101533.56;;;23.75;33.45
45763;BME280;37512;52.408;13.356;2023-05-29T16:30:44;101538.47;;;24.11;33.76
45763;BME280;37512;52.408;13.356;2023-05-29T16:34:47;101541.53;;;23.60;33.71
45763;BME280;37512;52.408;13.356;2023-05-29T16:38:49;101532.22;;;24.36;32.47
45763;BME280;37512;52.408;13.356;2023-05-29T16:42:53;101527.03;;;24.14;32.69
45763;BME280;37512;52.408;13.356;2023-05-29T16:46:56;101525.22;;;24.40;31.49
45763;BME280;37512;52.408;13.356;2023-05-29T16:50:59;101511.34;;;24.26;32.34
45763;BME280;37512;52.408;13.356;2023-05-29T16:55:02;101526.44;;;23.87;32.80
45763;BME280;37512;52.408;13.356;2023-05-29T16:59:04;101521.38;;;23.94;32.24
45763;BME280;37512;52.408;13.356;2023-05-29T17:03:07;101528.16;;;23.61;33.58
45763;BME280;37512;52.408;13.356;2023-05-29T17:07:09;101529.94;;;24.47;33.81
45763;BME280;37512;52.408;13.356;2023-05-29T17:11:11;101539.50;;;24.00;32.51
45763;BME280;37512;52.408;13.356;2023-05-29T17:15:13;101541.44;;;22.76;34.46
45763;BME280;37512;52.408;13.356;2023-05-29T17:19:16;101534.78;;;22.63;34.30
45763;BME280;37512;52.408;13.356;2023-05-29T17:23:18;101526.53;;;22.72;35.73
45763;BME280;37512;52.408;13.356;2023-05-29T17:27:21;101525.97;;;22.30;35.04
45763;BME280;37512;52.408;13.356;2023-05-29T17:31:23;101535.72;;;22.26;35.15
45763;BME280;37512;52.408;13.356;2023-05-29T17:35:31;101532.44;;;21.31;35.44
45763;BME280;37512;52.408;13.356;2023-05-29T17:39:34;101523.50;;;21.37;36.96
45763;BME280;37512;52.408;13.356;2023-05-29T17:43:36;101525.72;;;20.77;36.53
45763;BME280;37512;52.408;13.356;2023-05-29T17:47:40;101523.13;;;20.93;37.27
45763;BME280;37512;52.408;13.356;2023-05-29T17:51:44;101538.75;;;20.60;37.59
45763;BME280;37512;52.408;13.356;2023-05-29T17:55:46;101541.22;;;20.47;36.18
45763;BME280;37512;52.408;13.356;2023-05-29T17:59:49;101543.06;;;20.09;35.91
45763;BME280;37512;52.408;13.356;2023-05-29T18:03:52;101539.09;;;19.95;37.01
45763;BME280;37512;52.408;13.356;2023-05-29T18:08:03;101544.31;;;20.04;37.03
45763;BME280;37512;52.408;13.356;2023-05-29T18:12:09;101545.69;;;19.49;35.46
45763;BME280;37512;52.408;13.356;2023-05-29T18:16:14;101550.56;;;19.41;35.83
45763;BME280;37512;52.408;13.356;2023-05-29T18:20:16;101548.94;;;19.40;36.45
45763;BME280;37512;52.408;13.356;2023-05-29T18:24:21;101552.22;;;19.21;35.85
45763;BME280;37512;52.408;13.356;2023-05-29T18:28:23;101553.44;;;19.09;35.06
45763;BME280;37512;52.408;13.356;2023-05-29T18:32:32;101549.41;;;19.21;35.47
45763;BME280;37512;52.408;13.356;2023-05-29T18:36:36;101546.97;;;19.19;34.90
45763;BME280;37512;52.408;13.356;2023-05-29T18:40:38;101554.63;;;19.01;34.39
45763;BME280;37512;52.408;13.356;2023-05-29T18:44:40;101553.84;;;18.83;35.14
45763;BME280;37512;52.408;13.356;2023-05-29T18:48:42;101557.03;;;18.74;35.35
45763;BME280;37512;52.408;13.356;2023-05-29T18:52:45;101557.03;;;18.59;35.92
45763;BME280;37512;52.408;13.356;2023-05-29T18:56:47;101567.47;;;18.59;35.23
45763;BME280;37512;52.408;13.356;2023-05-29T19:00:49;101571.44;;;18.47;35.44
45763;BME280;37512;52.408;13.356;2023-05-29T19:04:52;101572.63;;;18.28;36.74
45763;BME280;37512;52.408;13.356;2023-05-29T19:08:55;101575.38;;;18.17;36.59
45763;BME280;37512;52.408;13.356;2023-05-29T19:12:58;101580.88;;;17.82;37.37
45763;BME280;37512;52.408;13.356;2023-05-29T19:17:00;101576.56;;;18.06;36.91
45763;BME280;37512;52.408;13.356;2023-05-29T19:21:02;101581.75;;;17.93;37.46
45763;BME280;37512;52.408;13.356;2023-05-29T19:25:05;101590.94;;;17.90;37.57
45763;BME280;37512;52.408;13.356;2023-05-29T19:29:09;101596.81;;;17.63;37.71
45763;BME280;37512;52.408;13.356;2023-05-29T19:33:11;101606.47;;;17.76;37.14
45763;BME280;37512;52.408;13.356;2023-05-29T19:37:17;101613.59;;;17.56;37.87
45763;BME280;37512;52.408;13.356;2023-05-29T19:41:19;101611.44;;;17.35;37.78
45763;BME280;37512;52.408;13.356;2023-05-29T19:45:22;101618.41;;;17.55;37.65
45763;BME280;37512;52.408;13.356;2023-05-29T19:49:24;101623.97;;;17.48;37.89
45763;BME280;37512;52.408;13.356;2023-05-29T19:53:32;101624.72;;;17.42;38.13
45763;BME280;37512;52.408;13.356;2023-05-29T19:57:35;101626.13;;;17.14;38.40
45763;BME280;37512;52.408;13.356;2023-05-29T20:01:39;101631.31;;;17.12;38.78
45763;BME280;37512;52.408;13.356;2023-05-29T20:05:47;101637.38;;;17.18;38.50
45763;BME280;37512;52.408;13.356;2023-05-29T20:09:53;101637.25;;;17.03;39.64
45763;BME280;37512;52.408;13.356;2023-05-29T20:13:56;101640.50;;;17.09;40.26
45763;BME280;37512;52.408;13.356;2023-05-29T20:17:59;101644.41;;;16.97;40.54
45763;BME280;37512;52.408;13.356;2023-05-29T20:22:02;101652.13;;;16.70;40.59
45763;BME280;37512;52.408;13.356;2023-05-29T20:26:05;101651.28;;;16.66;41.62
45763;BME280;37512;52.408;13.356;2023-05-29T20:30:07;101654.00;;;16.59;41.87
45763;BME280;37512;52.408;13.356;2023-05-29T20:34:09;101651.72;;;16.68;41.19
45763;BME280;37512;52.408;13.356;2023-05-29T20:38:12;101654.81;;;16.59;42.24
45763;BME280;37512;52.408;13.356;2023-05-29T20:42:14;101660.91;;;16.68;42.18
45763;BME280;37512;52.408;13.356;2023-05-29T20:46:16;101661.50;;;16.51;42.16
45763;BME280;37512;52.408;13.356;2023-05-29T20:50:18;101661.56;;;16.55;42.89
45763;BME280;37512;52.408;13.356;2023-05-29T20:54:19;101664.38;;;16.21;43.75
45763;BME280;37512;52.408;13.356;2023-05-29T20:58:21;101669.94;;;16.17;44.38
45763;BME280;37512;52.408;13.356;2023-05-29T21:02:23;101669.63;;;16.26;44.32
45763;BME280;37512;52.408;13.356;2023-05-29T21:06:25;101669.16;;;16.20;43.41
45763;BME280;37512;52.408;13.356;2023-05-29T21:10:27;101674.16;;;16.04;45.26
45763;BME280;37512;52.408;13.356;2023-05-29T21:14:29;101663.59;;;15.94;44.04
45763;BME280;37512;52.408;13.356;2023-05-29T21:18:32;101665.50;;;15.86;44.44
45763;BME280;37512;52.408;13.356;2023-05-29T21:22:34;101663.84;;;15.81;43.97
45763;BME280;37512;52.408;13.356;2023-05-29T21:31:59;101653.13;;;15.60;44.94
45763;BME280;37512;52.408;13.356;2023-05-29T21:36:00;101660.72;;;15.37;45.46
45763;BME280;37512;52.408;13.356;2023-05-29T21:40:03;101662.94;;;15.51;45.59
45763;BME280;37512;52.408;13.356;2023-05-29T21:44:09;101658.19;;;15.51;45.64
45763;BME280;37512;52.408;13.356;2023-05-29T21:48:12;101656.63;;;15.54;45.89
45763;BME280;37512;52.408;13.356;2023-05-29T21:52:22;101670.06;;;15.44;47.07
45763;BME280;37512;52.408;13.356;2023-05-29T21:56:23;101666.94;;;15.50;47.17
45763;BME280;37512;52.408;13.356;2023-05-29T22:00:28;101666.25;;;15.56;46.55
45763;BME280;37512;52.408;13.356;2023-05-29T22:04:32;101677.63;;;15.44;47.84
45763;BME280;37512;52.408;13.356;2023-05-29T22:08:41;101672.00;;;15.40;47.26
45763;BME280;37512;52.408;13.356;2023-05-29T22:13:00;101675.72;;;15.25;48.04
45763;BME280;37512;52.408;13.356;2023-05-29T22:17:08;101682.41;;;15.17;48.21
45763;BME280;37512;52.408;13.356;2023-05-29T22:21:11;101685.03;;;15.10;49.67
45763;BME280;37512;52.408;13.356;2023-05-29T22:25:15;101683.31;;;14.78;51.02
45763;BME280;37512;52.408;13.356;2023-05-29T22:29:17;101682.09;;;14.79;51.93
45763;BME280;37512;52.408;13.356;2023-05-29T22:33:20;101683.75;;;14.80;52.44